createdAt,value
2022-12-05T00:00:37.848Z,101900.31
2022-12-05T00:03:05.777Z,101903.00
2022-12-05T00:05:32.296Z,101905.72
2022-12-05T00:07:58.890Z,101900.66
2022-12-05T00:10:25.440Z,101895.56
2022-12-05T00:12:51.967Z,101888.66
2022-12-05T00:15:18.493Z,101885.28
2022-12-05T00:17:45.034Z,101881.06
2022-12-05T00:20:11.797Z,101881.06
2022-12-05T00:22:39.193Z,101885.63
2022-12-05T00:25:06.907Z,101881.06
2022-12-05T00:27:34.101Z,101872.28
2022-12-05T00:30:01.149Z,101877.34
2022-12-05T00:32:30.842Z,101878.88
2022-12-05T00:34:57.551Z,101878.03
2022-12-05T00:37:24.536Z,101877.69
2022-12-05T00:39:51.393Z,101871.59
2022-12-05T00:42:17.970Z,101860.81
2022-12-05T00:44:44.493Z,101869.06
2022-12-05T00:47:11.053Z,101860.16
2022-12-05T00:49:37.559Z,101870.94
2022-12-05T00:52:04.158Z,101865.88
2022-12-05T00:54:30.783Z,101862.50
2022-12-05T00:56:57.527Z,101861.50
2022-12-05T00:59:24.103Z,101861.16
2022-12-05T01:01:51.681Z,101864.38
2022-12-05T01:04:21.688Z,101857.28
2022-12-05T01:06:49.022Z,101862.84
2022-12-05T01:09:18.831Z,101863.50
2022-12-05T01:11:45.970Z,101864.19
2022-12-05T01:14:14.115Z,101859.78
2022-12-05T01:16:43.558Z,101866.06
2022-12-05T01:19:20.089Z,101869.94
2022-12-05T01:21:47.879Z,101876.00
2022-12-05T01:24:15.514Z,101863.50
2022-12-05T01:26:42.722Z,101863.19
2022-12-05T01:29:10.533Z,101857.78
2022-12-05T01:31:37.733Z,101866.91
2022-12-05T01:34:07.304Z,101872.47
2022-12-05T01:36:34.327Z,101857.78
2022-12-05T01:39:01.148Z,101851.53
2022-12-05T01:41:31.570Z,101854.09
2022-12-05T01:44:06.005Z,101857.09
2022-12-05T01:46:37.981Z,101853.56
2022-12-05T01:49:10.121Z,101859.47
2022-12-05T01:51:40.562Z,101858.13
2022-12-05T01:54:09.243Z,101849.34
2022-12-05T01:56:36.810Z,101857.13
2022-12-05T01:59:06.329Z,101848.34
2022-12-05T02:01:33.876Z,101847.50
2022-12-05T02:04:00.758Z,101848.84
2022-12-05T02:06:28.344Z,101847.97
2022-12-05T02:08:55.408Z,101845.47
2022-12-05T02:11:24.848Z,101836.53
2022-12-05T02:14:00.397Z,101836.53
2022-12-05T02:16:51.581Z,101838.88
2022-12-05T02:19:45.853Z,101831.78
2022-12-05T02:22:31.206Z,101823.38
2022-12-05T02:25:22.760Z,101826.06
2022-12-05T02:28:01.233Z,101826.91
2022-12-05T02:30:37.729Z,101826.91
2022-12-05T02:33:20.011Z,101820.66
2022-12-05T02:35:58.646Z,101830.47
2022-12-05T02:38:31.351Z,101828.06
2022-12-05T02:41:20.060Z,101820.31
2022-12-05T02:43:57.302Z,101820.31
2022-12-05T02:46:27.315Z,101821.31
2022-12-05T02:49:08.471Z,101813.22
2022-12-05T02:51:47.039Z,101809.69
2022-12-05T02:54:21.723Z,101808.69
2022-12-05T02:56:49.636Z,101809.50
2022-12-05T02:59:22.881Z,101810.38
2022-12-05T03:01:50.721Z,101806.63
2022-12-05T03:04:20.209Z,101813.56
2022-12-05T03:06:54.457Z,101806.50
2022-12-05T03:09:38.941Z,101813.56
2022-12-05T03:12:05.376Z,101814.59
2022-12-05T03:14:37.568Z,101804.63
2022-12-05T03:17:10.427Z,101804.25
2022-12-05T03:19:55.817Z,101800.22
2022-12-05T03:22:31.892Z,101802.25
2022-12-05T03:25:00.013Z,101803.09
2022-12-05T03:27:47.987Z,101795.66
2022-12-05T03:30:18.165Z,101797.34
2022-12-05T03:33:10.850Z,101801.91
2022-12-05T03:36:06.430Z,101794.66
2022-12-05T03:38:57.257Z,101798.19
2022-12-05T03:41:35.968Z,101793.47
2022-12-05T03:44:33.267Z,101793.47
2022-12-05T03:47:33.751Z,101797.00
2022-12-05T03:50:05.520Z,101792.78
2022-12-05T03:52:57.158Z,101791.59
2022-12-05T03:55:29.751Z,101787.84
2022-12-05T03:58:01.809Z,101782.31
2022-12-05T04:00:32.342Z,101790.22
2022-12-05T04:03:02.800Z,101779.44
2022-12-05T04:05:42.088Z,101782.31
2022-12-05T04:08:17.603Z,101785.47
2022-12-05T04:10:48.899Z,101783.66
2022-12-05T04:13:25.173Z,101780.75
2022-12-05T04:16:17.861Z,101785.16
2022-12-05T04:18:57.140Z,101787.84
2022-12-05T04:21:38.400Z,101785.81
2022-12-05T04:24:35.114Z,101782.44
2022-12-05T04:27:31.874Z,101782.09
2022-12-05T04:30:03.600Z,101787.50
2022-12-05T04:32:41.584Z,101793.59
2022-12-05T04:35:17.098Z,101785.16
2022-12-05T04:37:48.616Z,101787.00
2022-12-05T04:40:25.103Z,101795.59
2022-12-05T04:42:54.639Z,101784.28
2022-12-05T04:45:24.602Z,101785.16
2022-12-05T04:47:57.308Z,101787.84
2022-12-05T04:50:27.017Z,101789.38
2022-12-05T04:52:56.918Z,101785.81
2022-12-05T04:55:26.261Z,101786.47
2022-12-05T04:57:55.786Z,101790.53
2022-12-05T05:00:22.825Z,101787.63
2022-12-05T05:03:00.668Z,101788.81
2022-12-05T05:05:28.983Z,101792.72
2022-12-05T05:07:55.746Z,101793.38
2022-12-05T05:10:44.093Z,101795.59
2022-12-05T05:13:10.667Z,101793.03
2022-12-05T05:15:37.325Z,101796.94
2022-12-05T05:18:04.162Z,101796.94
2022-12-05T05:20:30.665Z,101790.88
2022-12-05T05:22:58.220Z,101788.81
2022-12-05T05:25:25.992Z,101789.50
2022-12-05T05:27:55.596Z,101788.81
2022-12-05T05:30:24.389Z,101788.00
2022-12-05T05:32:52.486Z,101788.34
2022-12-05T05:35:19.345Z,101786.31
2022-12-05T05:37:46.264Z,101781.75
2022-12-05T05:40:14.299Z,101789.50
2022-12-05T05:42:49.187Z,101783.44
2022-12-05T05:45:16.136Z,101791.38
2022-12-05T05:47:43.296Z,101783.75
2022-12-05T05:50:10.348Z,101780.91
2022-12-05T05:53:02.859Z,101776.13
2022-12-05T05:55:29.496Z,101789.47
2022-12-05T05:57:56.046Z,101785.75
2022-12-05T06:00:22.581Z,101786.13
2022-12-05T06:02:49.190Z,101789.31
2022-12-05T06:05:15.929Z,101790.16
2022-12-05T06:07:42.586Z,101785.44
2022-12-05T06:10:09.543Z,101791.84
2022-12-05T06:12:36.099Z,101784.44
2022-12-05T06:15:02.597Z,101783.75
2022-12-05T06:17:30.052Z,101782.72
2022-12-05T06:19:56.819Z,101784.94
2022-12-05T06:22:23.664Z,101786.44
2022-12-05T06:24:50.386Z,101787.31
2022-12-05T06:27:16.908Z,101793.59
2022-12-05T06:29:43.667Z,101790.53
2022-12-05T06:32:10.244Z,101794.78
2022-12-05T06:34:37.107Z,101795.41
2022-12-05T06:37:04.157Z,101791.06
2022-12-05T06:39:30.667Z,101790.88
2022-12-05T06:41:57.472Z,101793.75
2022-12-05T06:44:26.944Z,101795.59
2022-12-05T06:46:54.418Z,101801.00
2022-12-05T06:49:25.213Z,101797.78
2022-12-05T06:51:55.895Z,101794.63
2022-12-05T06:54:22.368Z,101802.72
2022-12-05T06:56:48.942Z,101800.03
2022-12-05T06:59:15.622Z,101805.44
2022-12-05T07:01:42.998Z,101794.78
2022-12-05T07:04:20.243Z,101799.53
2022-12-05T07:06:50.992Z,101794.31
2022-12-05T07:09:20.087Z,101799.69
2022-12-05T07:11:48.231Z,101800.88
2022-12-05T07:14:31.222Z,101792.94
2022-12-05T07:17:01.262Z,101789.03
2022-12-05T07:19:27.770Z,101799.38
2022-12-05T07:21:54.261Z,101792.78
2022-12-05T07:24:20.819Z,101807.94
2022-12-05T07:26:47.414Z,101799.69
2022-12-05T07:29:13.996Z,101797.00
2022-12-05T07:31:40.532Z,101808.34
2022-12-05T07:34:07.236Z,101794.31
2022-12-05T07:36:34.526Z,101799.22
2022-12-05T07:39:01.299Z,101795.84
2022-12-05T07:41:30.433Z,101799.91
2022-12-05T07:43:58.278Z,101804.78
2022-12-05T07:46:26.489Z,101810.38
2022-12-05T07:48:53.688Z,101803.44
2022-12-05T07:51:20.988Z,101803.13
2022-12-05T07:53:48.472Z,101798.03
2022-12-05T07:56:17.118Z,101795.00
2022-12-05T07:58:45.445Z,101802.47
2022-12-05T08:01:15.435Z,101793.31
2022-12-05T08:03:42.260Z,101795.00
2022-12-05T08:06:11.306Z,101805.81
2022-12-05T08:08:38.091Z,101797.19
2022-12-05T08:11:10.601Z,101802.28
2022-12-05T08:13:37.807Z,101807.84
2022-12-05T08:16:06.473Z,101806.81
2022-12-05T08:18:33.402Z,101801.94
2022-12-05T08:21:05.101Z,101816.97
2022-12-05T08:23:32.999Z,101808.00
2022-12-05T08:26:16.826Z,101810.03
2022-12-05T08:28:44.318Z,101815.59
2022-12-05T08:31:16.480Z,101809.53
2022-12-05T08:33:43.626Z,101810.56
2022-12-05T08:36:13.024Z,101813.25
2022-12-05T08:38:39.583Z,101818.97
2022-12-05T08:41:12.581Z,101824.34
2022-12-05T08:43:39.433Z,101823.69
2022-12-05T08:46:06.593Z,101824.03
2022-12-05T08:48:34.177Z,101821.00
2022-12-05T08:51:06.211Z,101822.19
2022-12-05T08:53:32.805Z,101830.44
2022-12-05T08:56:04.080Z,101822.00
2022-12-05T08:58:30.885Z,101823.19
2022-12-05T09:01:08.071Z,101823.19
2022-12-05T09:03:35.210Z,101822.00
2022-12-05T09:06:07.841Z,101827.22
2022-12-05T09:08:34.660Z,101820.66
2022-12-05T09:11:17.861Z,101824.34
2022-12-05T09:13:45.122Z,101824.38
2022-12-05T09:16:14.589Z,101819.97
2022-12-05T09:18:41.251Z,101826.38
2022-12-05T09:21:13.244Z,101818.63
2022-12-05T09:23:40.310Z,101819.63
2022-12-05T09:26:08.616Z,101824.03
2022-12-05T09:28:35.545Z,101826.56
2022-12-05T09:31:04.495Z,101825.38
2022-12-05T09:33:33.261Z,101832.81
2022-12-05T09:36:13.191Z,101832.63
2022-12-05T09:38:40.414Z,101843.25
2022-12-05T09:41:21.808Z,101830.59
2022-12-05T09:44:03.940Z,101832.47
2022-12-05T09:46:52.190Z,101827.25
2022-12-05T09:49:19.363Z,101831.94
2022-12-05T09:51:52.253Z,101838.34
2022-12-05T09:54:22.861Z,101838.47
2022-12-05T09:56:51.687Z,101825.00
2022-12-05T09:59:20.680Z,101831.56
2022-12-05T10:02:04.260Z,101822.66
2022-12-05T10:04:47.069Z,101834.78
2022-12-05T10:07:34.467Z,101834.44
2022-12-05T10:10:27.967Z,101837.13
2022-12-05T10:13:32.684Z,101829.84
2022-12-05T10:16:03.358Z,101838.78
2022-12-05T10:18:44.792Z,101829.84
2022-12-05T10:21:53.519Z,101827.69
2022-12-05T10:24:38.814Z,101830.38
2022-12-05T10:27:14.124Z,101831.22
2022-12-05T10:29:47.883Z,101823.94
2022-12-05T10:32:31.187Z,101823.63
2022-12-05T10:35:14.223Z,101824.13
2022-12-05T10:37:46.304Z,101822.59
2022-12-05T10:40:13.979Z,101817.19
2022-12-05T10:42:40.778Z,101822.94
2022-12-05T10:45:14.363Z,101821.59
2022-12-05T10:47:40.960Z,101828.97
2022-12-05T10:50:21.832Z,101825.28
2022-12-05T10:52:48.784Z,101819.56
2022-12-05T10:55:18.175Z,101819.56
2022-12-05T10:57:51.922Z,101816.03
2022-12-05T11:00:23.149Z,101810.47
2022-12-05T11:02:50.313Z,101812.16
2022-12-05T11:05:27.953Z,101815.03
2022-12-05T11:07:56.527Z,101803.19
2022-12-05T11:10:38.922Z,101814.84
2022-12-05T11:13:24.497Z,101807.75
2022-12-05T11:15:55.517Z,101801.38
2022-12-05T11:18:25.069Z,101806.75
2022-12-05T11:20:52.305Z,101803.06
2022-12-05T11:23:30.789Z,101800.03
2022-12-05T11:25:58.450Z,101794.13
2022-12-05T11:28:32.157Z,101799.69
2022-12-05T11:31:17.055Z,101792.94
2022-12-05T11:33:43.743Z,101787.03
2022-12-05T11:36:19.534Z,101791.59
2022-12-05T11:38:46.783Z,101779.75
2022-12-05T11:41:35.141Z,101788.72
2022-12-05T11:44:39.233Z,101783.63
2022-12-05T11:47:27.282Z,101782.63
2022-12-05T11:50:35.338Z,101780.47
2022-12-05T11:53:29.769Z,101780.13
2022-12-05T11:56:32.052Z,101778.44
2022-12-05T11:59:13.523Z,101775.41
2022-12-05T12:01:52.052Z,101781.63
2022-12-05T12:04:37.142Z,101772.19
2022-12-05T12:07:36.031Z,101780.13
2022-12-05T12:10:14.551Z,101783.84
2022-12-05T12:13:03.826Z,101771.38
2022-12-05T12:15:44.775Z,101771.03
2022-12-05T12:18:40.618Z,101768.16
2022-12-05T12:21:38.778Z,101772.38
2022-12-05T12:24:27.500Z,101763.09
2022-12-05T12:27:18.684Z,101774.75
2022-12-05T12:30:12.363Z,101779.16
2022-12-05T12:32:53.726Z,101765.66
2022-12-05T12:35:59.715Z,101762.97
2022-12-05T12:38:51.015Z,101759.59
2022-12-05T12:41:39.748Z,101762.28
2022-12-05T12:44:12.207Z,101758.75
2022-12-05T12:46:46.165Z,101759.25
2022-12-05T12:49:30.772Z,101765.31
2022-12-05T12:52:10.762Z,101751.84
2022-12-05T12:55:03.950Z,101755.53
2022-12-05T12:57:57.724Z,101759.41
2022-12-05T13:00:45.973Z,101756.72
2022-12-05T13:03:17.192Z,101761.25
2022-12-05T13:05:53.269Z,101758.56
2022-12-05T13:08:36.631Z,101749.47
2022-12-05T13:11:08.381Z,101751.63
2022-12-05T13:13:40.262Z,101757.88
2022-12-05T13:16:08.390Z,101742.03
2022-12-05T13:18:35.847Z,101745.41
2022-12-05T13:21:08.034Z,101746.94
2022-12-05T13:23:41.583Z,101748.63
2022-12-05T13:26:11.130Z,101745.41
2022-12-05T13:28:47.619Z,101753.66
2022-12-05T13:31:17.060Z,101750.97
2022-12-05T13:33:49.493Z,101744.41
2022-12-05T13:36:38.349Z,101748.28
2022-12-05T13:39:39.268Z,101743.88
2022-12-05T13:42:18.864Z,101734.97
2022-12-05T13:44:55.705Z,101726.53
2022-12-05T13:47:22.163Z,101743.72
2022-12-05T13:49:56.114Z,101737.66
2022-12-05T13:52:27.294Z,101744.72
2022-12-05T13:54:59.652Z,101740.19
2022-12-05T13:57:38.036Z,101741.03
2022-12-05T14:00:21.711Z,101742.88
2022-12-05T14:02:51.247Z,101750.97
2022-12-05T14:05:20.678Z,101753.66
2022-12-05T14:08:02.378Z,101757.53
2022-12-05T14:10:35.953Z,101752.16
2022-12-05T14:13:14.889Z,101750.47
2022-12-05T14:15:43.509Z,101743.88
2022-12-05T14:18:23.347Z,101758.38
2022-12-05T14:21:08.255Z,101752.31
2022-12-05T14:23:55.551Z,101753.31
2022-12-05T14:26:43.056Z,101754.16
2022-12-05T14:29:25.346Z,101752.97
2022-12-05T14:32:10.150Z,101755.69
2022-12-05T14:34:47.495Z,101749.09
2022-12-05T14:37:16.817Z,101751.13
2022-12-05T14:39:50.252Z,101750.28
2022-12-05T14:42:23.091Z,101751.97
2022-12-05T14:44:51.722Z,101745.72
2022-12-05T14:47:22.713Z,101744.03
2022-12-05T14:50:21.046Z,101748.59
2022-12-05T14:53:25.985Z,101750.47
2022-12-05T14:56:16.383Z,101742.38
2022-12-05T14:59:04.523Z,101747.25
2022-12-05T15:01:49.349Z,101750.75
2022-12-05T15:04:17.426Z,101759.19
2022-12-05T15:06:52.485Z,101753.78
2022-12-05T15:09:56.140Z,101746.88
2022-12-05T15:12:31.766Z,101746.88
2022-12-05T15:15:08.204Z,101751.09
2022-12-05T15:17:43.367Z,101756.84
2022-12-05T15:20:34.358Z,101746.06
2022-12-05T15:23:41.105Z,101752.94
2022-12-05T15:26:45.392Z,101758.50
2022-12-05T15:29:16.063Z,101751.41
2022-12-05T15:31:48.644Z,101753.44
2022-12-05T15:34:44.079Z,101755.63
2022-12-05T15:37:30.676Z,101757.31
2022-12-05T15:40:14.168Z,101755.94
2022-12-05T15:42:40.792Z,101764.19
2022-12-05T15:45:18.386Z,101770.56
2022-12-05T15:48:09.409Z,101758.44
2022-12-05T15:50:50.327Z,101764.16
2022-12-05T15:53:44.717Z,101768.84
2022-12-05T15:56:20.351Z,101764.00
2022-12-05T15:58:50.719Z,101765.69
2022-12-05T16:01:25.240Z,101764.69
2022-12-05T16:04:29.186Z,101757.44
2022-12-05T16:07:00.503Z,101756.09
2022-12-05T16:09:31.910Z,101751.72
2022-12-05T16:12:15.581Z,101757.44
2022-12-05T16:15:00.075Z,101752.88
2022-12-05T16:17:30.559Z,101762.81
2022-12-05T16:20:25.175Z,101758.59
2022-12-05T16:22:54.752Z,101757.09
2022-12-05T16:25:33.854Z,101763.47
2022-12-05T16:28:08.288Z,101762.13
2022-12-05T16:30:36.304Z,101756.09
2022-12-05T16:33:13.982Z,101758.78
2022-12-05T16:35:43.414Z,101766.00
2022-12-05T16:38:31.847Z,101753.22
2022-12-05T16:41:04.259Z,101753.44
2022-12-05T16:43:31.665Z,101760.72
2022-12-05T16:46:20.526Z,101757.53
2022-12-05T16:49:10.907Z,101763.63
2022-12-05T16:51:58.765Z,101755.53
2022-12-05T16:54:25.367Z,101761.28
2022-12-05T16:56:52.180Z,101753.84
2022-12-05T16:59:26.912Z,101756.22
2022-12-05T17:01:53.576Z,101758.59
2022-12-05T17:04:20.214Z,101753.06
2022-12-05T17:06:47.024Z,101759.25
2022-12-05T17:09:13.652Z,101750.84
2022-12-05T17:11:43.055Z,101750.84
2022-12-05T17:14:18.220Z,101746.09
2022-12-05T17:16:45.343Z,101751.50
2022-12-05T17:19:12.473Z,101754.22
2022-12-05T17:21:42.163Z,101751.84
2022-12-05T17:24:18.781Z,101751.69
2022-12-05T17:26:46.381Z,101750.34
2022-12-05T17:29:13.317Z,101741.06
2022-12-05T17:31:39.880Z,101739.03
2022-12-05T17:34:15.784Z,101749.66
2022-12-05T17:36:42.986Z,101748.84
2022-12-05T17:39:09.615Z,101745.28
2022-12-05T17:41:36.963Z,101737.69
2022-12-05T17:44:04.727Z,101742.41
2022-12-05T17:46:31.575Z,101746.97
2022-12-05T17:48:58.204Z,101755.38
2022-12-05T17:51:24.930Z,101755.72
2022-12-05T17:53:53.045Z,101755.91
2022-12-05T17:56:19.737Z,101750.69
2022-12-05T17:58:46.768Z,101752.00
2022-12-05T18:01:16.811Z,101760.28
2022-12-05T18:03:43.629Z,101757.59
2022-12-05T18:06:10.276Z,101762.47
2022-12-05T18:08:39.785Z,101762.97
2022-12-05T18:11:06.753Z,101765.84
2022-12-05T18:13:34.022Z,101774.13
2022-12-05T18:16:01.396Z,101762.63
2022-12-05T18:18:29.460Z,101760.28
2022-12-05T18:21:05.780Z,101758.06
2022-12-05T18:23:32.318Z,101764.34
2022-12-05T18:26:00.377Z,101748.47
2022-12-05T18:28:27.564Z,101760.09
2022-12-05T18:31:15.661Z,101757.44
2022-12-05T18:33:46.642Z,101762.63
2022-12-05T18:36:21.023Z,101753.88
2022-12-05T18:38:55.177Z,101756.25
2022-12-05T18:41:23.724Z,101756.91
2022-12-05T18:43:51.173Z,101759.47
2022-12-05T18:46:17.834Z,101760.09
2022-12-05T18:48:47.895Z,101767.88
2022-12-05T18:51:21.290Z,101771.59
2022-12-05T18:53:53.266Z,101758.44
2022-12-05T18:56:26.474Z,101769.06
2022-12-05T18:59:14.934Z,101771.09
2022-12-05T19:01:42.248Z,101761.81
2022-12-05T19:04:12.640Z,101765.84
2022-12-05T19:06:41.536Z,101770.06
2022-12-05T19:09:12.346Z,101767.72
2022-12-05T19:11:47.315Z,101762.66
2022-12-05T19:14:14.961Z,101766.38
2022-12-05T19:16:41.611Z,101763.66
2022-12-05T19:19:09.160Z,101756.25
2022-12-05T19:21:37.225Z,101754.38
2022-12-05T19:24:05.291Z,101760.47
2022-12-05T19:26:32.529Z,101759.94
2022-12-05T19:28:59.487Z,101758.59
2022-12-05T19:31:27.837Z,101755.56
2022-12-05T19:33:56.754Z,101764.66
2022-12-05T19:36:27.604Z,101760.28
2022-12-05T19:38:55.790Z,101758.25
2022-12-05T19:41:25.382Z,101763.16
2022-12-05T19:43:52.221Z,101757.78
2022-12-05T19:46:24.876Z,101758.59
2022-12-05T19:48:53.219Z,101768.56
2022-12-05T19:51:20.081Z,101759.25
2022-12-05T19:53:47.718Z,101755.22
2022-12-05T19:56:22.914Z,101748.47
2022-12-05T19:58:51.302Z,101756.91
2022-12-05T20:01:21.301Z,101753.72
2022-12-05T20:03:50.326Z,101757.25
2022-12-05T20:06:18.285Z,101749.16
2022-12-05T20:08:46.186Z,101747.81
2022-12-05T20:11:19.953Z,101746.78
2022-12-05T20:13:48.275Z,101749.47
2022-12-05T20:16:19.110Z,101753.56
2022-12-05T20:18:46.692Z,101744.44
2022-12-05T20:21:16.209Z,101746.81
2022-12-05T20:23:45.014Z,101745.81
2022-12-05T20:26:13.738Z,101740.75
2022-12-05T20:28:41.281Z,101740.41
2022-12-05T20:31:11.236Z,101736.34
2022-12-05T20:33:38.529Z,101737.19
2022-12-05T20:36:17.404Z,101736.66
2022-12-05T20:38:45.283Z,101742.06
2022-12-05T20:41:17.854Z,101740.41
2022-12-05T20:43:49.420Z,101732.97
2022-12-05T20:46:19.400Z,101738.72
2022-12-05T20:48:48.048Z,101729.94
2022-12-05T20:51:22.731Z,101730.28
2022-12-05T20:53:49.750Z,101726.59
2022-12-05T20:56:19.676Z,101726.41
2022-12-05T20:58:48.980Z,101717.44
2022-12-05T21:01:17.362Z,101716.63
2022-12-05T21:03:46.613Z,101725.53
2022-12-05T21:06:23.417Z,101718.16
2022-12-05T21:08:52.156Z,101719.50
2022-12-05T21:11:19.528Z,101719.50
2022-12-05T21:13:46.198Z,101718.31
2022-12-05T21:16:18.497Z,101720.69
2022-12-05T21:18:45.433Z,101721.50
2022-12-05T21:21:15.738Z,101720.31
2022-12-05T21:23:43.679Z,101714.63
2022-12-05T21:26:14.643Z,101724.22
2022-12-05T21:28:42.244Z,101715.09
2022-12-05T21:31:11.789Z,101712.06
2022-12-05T21:33:39.995Z,101714.09
2022-12-05T21:36:07.298Z,101714.09
2022-12-05T21:38:34.199Z,101712.59
2022-12-05T21:41:03.247Z,101719.16
2022-12-05T21:43:29.945Z,101709.22
2022-12-05T21:45:56.849Z,101711.06
2022-12-05T21:48:24.778Z,101711.75
2022-12-05T21:50:52.336Z,101700.78
2022-12-05T21:53:20.006Z,101698.09
2022-12-05T21:55:47.095Z,101698.56
2022-12-05T21:58:14.218Z,101692.53
2022-12-05T22:00:40.852Z,101702.97
2022-12-05T22:03:07.754Z,101699.25
2022-12-05T22:05:34.354Z,101688.81
2022-12-05T22:08:04.976Z,101686.13
2022-12-05T22:10:36.290Z,101690.47
2022-12-05T22:13:03.001Z,101688.81
2022-12-05T22:15:29.567Z,101681.91
2022-12-05T22:17:56.654Z,101681.41
2022-12-05T22:20:24.285Z,101681.06
2022-12-05T22:22:51.349Z,101682.41
2022-12-05T22:25:17.943Z,101680.03
2022-12-05T22:27:44.883Z,101685.94
2022-12-05T22:30:11.722Z,101679.34
2022-12-05T22:32:38.239Z,101682.41
2022-12-05T22:35:05.076Z,101688.16
2022-12-05T22:37:31.837Z,101681.06
2022-12-05T22:39:58.901Z,101681.72
2022-12-05T22:42:28.651Z,101678.72
2022-12-05T22:44:55.173Z,101675.84
2022-12-05T22:47:21.733Z,101682.06
2022-12-05T22:49:48.242Z,101663.88
2022-12-05T22:52:15.371Z,101670.25
2022-12-05T22:54:42.004Z,101669.63
2022-12-05T22:57:08.623Z,101667.75
2022-12-05T22:59:35.198Z,101665.88
2022-12-05T23:02:01.678Z,101678.34
2022-12-05T23:04:28.309Z,101664.88
2022-12-05T23:06:54.868Z,101662.16
2022-12-05T23:09:21.425Z,101666.56
2022-12-05T23:11:50.547Z,101667.56
2022-12-05T23:14:17.180Z,101686.28
2022-12-05T23:16:43.754Z,101670.94
2022-12-05T23:19:10.324Z,101667.38
2022-12-05T23:21:40.467Z,101657.47
2022-12-05T23:24:12.452Z,101652.72
2022-12-05T23:26:45.381Z,101649.53
2022-12-05T23:29:13.152Z,101654.09
2022-12-05T23:31:40.717Z,101648.69
2022-12-05T23:34:07.670Z,101657.13
2022-12-05T23:36:35.091Z,101656.75
2022-12-05T23:39:02.081Z,101649.50
2022-12-05T23:41:28.754Z,101650.69
2022-12-05T23:43:55.556Z,101652.72
2022-12-05T23:46:24.700Z,101656.94
2022-12-05T23:48:52.040Z,101646.31
2022-12-05T23:51:25.713Z,101645.78
2022-12-05T23:53:54.889Z,101653.91
2022-12-05T23:56:24.600Z,101642.78
2022-12-05T23:58:51.397Z,101652.38
